createdAt,value
2018-06-23T00:01:38.035Z,13.60
2018-06-23T00:04:07.433Z,13.20
2018-06-23T00:06:36.614Z,13.40
2018-06-23T00:09:06.927Z,13.50
2018-06-23T00:11:36.111Z,13.50
2018-06-23T00:14:05.393Z,13.50
2018-06-23T00:16:34.611Z,13.50
2018-06-23T00:19:03.775Z,13.40
2018-06-23T00:21:33.010Z,13.30
2018-06-23T00:24:02.174Z,13.20
2018-06-23T00:26:31.667Z,12.90
2018-06-23T00:29:01.552Z,12.80
2018-06-23T00:31:30.708Z,13.00
2018-06-23T00:33:59.947Z,13.10
2018-06-23T00:36:29.112Z,13.30
2018-06-23T00:38:58.286Z,13.30
2018-06-23T00:41:27.454Z,13.30
2018-06-23T00:43:56.618Z,13.10
2018-06-23T00:46:25.806Z,12.40
2018-06-23T00:48:54.958Z,12.80
2018-06-23T00:51:24.178Z,12.90
2018-06-23T00:53:53.367Z,12.90
2018-06-23T00:56:22.578Z,12.80
2018-06-23T00:59:02.796Z,12.90
2018-06-23T01:01:32.014Z,12.80
2018-06-23T01:04:01.193Z,12.80
2018-06-23T01:06:30.412Z,12.90
2018-06-23T01:09:00.141Z,12.70
2018-06-23T01:11:29.382Z,12.70
2018-06-23T01:13:58.693Z,12.60
2018-06-23T01:16:27.906Z,12.60
2018-06-23T01:18:57.271Z,12.60
2018-06-23T01:21:26.477Z,12.50
2018-06-23T01:23:55.934Z,12.40
2018-06-23T01:26:25.145Z,12.40
2018-06-23T01:28:54.339Z,12.50
2018-06-23T01:31:23.525Z,12.50
2018-06-23T01:33:53.163Z,12.50
2018-06-23T01:36:22.382Z,12.20
2018-06-23T01:38:51.599Z,11.90
2018-06-23T01:41:20.790Z,12.00
2018-06-23T01:43:50.039Z,12.10
2018-06-23T01:46:19.226Z,12.10
2018-06-23T01:48:48.566Z,12.00
2018-06-23T01:53:47.445Z,11.90
2018-06-23T01:56:16.700Z,11.80
2018-06-23T01:58:45.885Z,11.90
2018-06-23T02:01:15.107Z,11.70
2018-06-23T02:03:44.756Z,11.30
2018-06-23T02:08:42.726Z,11.70
2018-06-23T02:11:12.317Z,11.60
2018-06-23T02:13:41.926Z,11.60
2018-06-23T02:16:16.426Z,11.80
2018-06-23T02:18:50.767Z,11.50
2018-06-23T02:21:25.284Z,11.80
2018-06-23T02:23:59.798Z,12.00
2018-06-23T02:26:34.466Z,11.90
2018-06-23T02:29:09.090Z,12.00
2018-06-23T02:31:43.576Z,12.10
2018-06-23T02:34:17.985Z,12.10
2018-06-23T02:36:47.199Z,11.90
2018-06-23T02:39:16.425Z,11.80
2018-06-23T02:41:45.599Z,12.00
2018-06-23T02:44:14.822Z,11.90
2018-06-23T02:46:44.018Z,11.80
2018-06-23T02:49:13.238Z,12.00
2018-06-23T02:51:42.500Z,11.70
2018-06-23T02:54:11.843Z,11.60
2018-06-23T02:56:41.054Z,11.80
2018-06-23T02:59:10.278Z,11.90
2018-06-23T03:01:39.456Z,11.80
2018-06-23T03:04:08.726Z,11.80
2018-06-23T03:06:37.905Z,11.80
2018-06-23T03:09:07.394Z,11.60
2018-06-23T03:11:36.609Z,11.10
2018-06-23T03:14:05.874Z,11.10
2018-06-23T03:16:35.126Z,11.30
2018-06-23T03:19:04.450Z,11.40
2018-06-23T03:21:33.771Z,11.40
2018-06-23T03:24:03.007Z,11.30
2018-06-23T03:26:32.193Z,11.30
2018-06-23T03:29:01.426Z,11.20
2018-06-23T03:31:30.651Z,11.20
2018-06-23T03:33:59.974Z,11.10
2018-06-23T03:38:57.936Z,10.90
2018-06-23T03:41:27.155Z,10.60
2018-06-23T03:43:56.454Z,10.60
2018-06-23T03:46:25.694Z,10.80
2018-06-23T03:48:54.874Z,10.90
2018-06-23T03:51:24.134Z,10.50
2018-06-23T03:53:53.354Z,10.70
2018-06-23T03:56:22.629Z,10.80
2018-06-23T03:58:52.219Z,10.80
2018-06-23T04:01:21.413Z,10.70
2018-06-23T04:03:50.590Z,10.70
2018-06-23T04:06:19.790Z,10.60
2018-06-23T04:08:48.961Z,10.60
2018-06-23T04:11:18.646Z,10.60
2018-06-23T04:13:47.958Z,10.60
2018-06-23T04:16:17.179Z,10.70
2018-06-23T04:18:57.190Z,10.50
2018-06-23T04:21:27.830Z,10.70
2018-06-23T04:23:57.155Z,10.90
2018-06-23T04:26:27.010Z,11.00
2018-06-23T04:28:56.190Z,11.00
2018-06-23T04:31:25.434Z,11.00
2018-06-23T04:33:54.906Z,11.00
2018-06-23T04:36:24.514Z,11.10
2018-06-23T04:38:53.707Z,11.20
2018-06-23T04:41:22.927Z,11.30
2018-06-23T04:43:52.110Z,11.20
2018-06-23T04:46:21.339Z,11.30
2018-06-23T04:48:50.535Z,11.40
2018-06-23T04:51:19.746Z,11.50
2018-06-23T04:53:49.689Z,11.60
2018-06-23T04:56:18.900Z,11.70
2018-06-23T04:58:48.081Z,11.60
2018-06-23T05:01:17.294Z,11.70
2018-06-23T05:03:46.627Z,11.80
2018-06-23T05:06:15.826Z,11.90
2018-06-23T05:08:45.014Z,12.10
2018-06-23T05:13:43.019Z,12.30
2018-06-23T05:16:12.288Z,12.40
2018-06-23T05:18:41.547Z,12.30
2018-06-23T05:21:10.783Z,12.30
2018-06-23T05:23:40.020Z,12.50
2018-06-23T05:26:09.215Z,12.60
2018-06-23T05:28:38.420Z,12.70
2018-06-23T05:31:07.607Z,12.60
2018-06-23T05:33:36.846Z,12.70
2018-06-23T05:36:06.042Z,12.80
2018-06-23T05:38:35.251Z,13.00
2018-06-23T05:41:04.454Z,13.10
2018-06-23T05:43:33.696Z,13.30
2018-06-23T05:46:02.906Z,13.50
2018-06-23T05:48:32.134Z,13.60
2018-06-23T05:51:01.334Z,13.70
2018-06-23T05:53:30.835Z,13.70
2018-06-23T05:56:00.380Z,13.80
2018-06-23T05:58:29.569Z,13.90
2018-06-23T06:00:58.943Z,14.00
2018-06-23T06:03:28.162Z,14.10
2018-06-23T06:05:57.458Z,14.00
2018-06-23T06:08:26.707Z,14.00
2018-06-23T06:10:55.897Z,14.20
2018-06-23T06:13:25.102Z,14.30
2018-06-23T06:15:54.293Z,14.40
2018-06-23T06:18:23.530Z,14.50
2018-06-23T06:20:52.729Z,14.60
2018-06-23T06:23:22.082Z,14.50
2018-06-23T06:25:51.310Z,14.20
2018-06-23T06:28:20.546Z,14.40
2018-06-23T06:30:49.730Z,14.40
2018-06-23T06:33:18.995Z,14.70
2018-06-23T06:35:48.204Z,14.80
2018-06-23T06:38:17.418Z,14.70
2018-06-23T06:40:46.626Z,14.60
2018-06-23T06:43:15.859Z,14.90
2018-06-23T06:45:45.053Z,15.10
2018-06-23T06:48:14.265Z,15.00
2018-06-23T06:50:43.612Z,15.00
2018-06-23T06:53:12.810Z,15.10
2018-06-23T06:55:42.022Z,15.40
2018-06-23T06:58:11.219Z,15.40
2018-06-23T07:00:40.410Z,15.30
2018-06-23T07:03:09.788Z,15.50
2018-06-23T07:05:38.987Z,15.60
2018-06-23T07:08:08.242Z,15.90
2018-06-23T07:10:37.517Z,16.00
2018-06-23T07:13:08.458Z,16.00
2018-06-23T07:15:37.761Z,16.00
2018-06-23T07:18:07.233Z,16.00
2018-06-23T07:20:36.463Z,15.90
2018-06-23T07:23:05.652Z,16.10
2018-06-23T07:25:34.894Z,16.20
2018-06-23T07:28:05.765Z,16.40
2018-06-23T07:30:34.970Z,16.40
2018-06-23T07:33:04.153Z,16.50
2018-06-23T07:35:33.382Z,16.80
2018-06-23T07:38:02.575Z,16.80
2018-06-23T07:40:31.866Z,16.60
2018-06-23T07:43:01.277Z,16.80
2018-06-23T07:45:30.499Z,17.10
2018-06-23T07:47:59.970Z,17.20
2018-06-23T07:50:29.199Z,17.10
2018-06-23T07:52:58.389Z,17.20
2018-06-23T07:55:27.606Z,17.20
2018-06-23T07:57:56.789Z,16.80
2018-06-23T08:00:26.038Z,16.80
2018-06-23T08:02:55.227Z,17.00
2018-06-23T08:05:24.446Z,16.90
2018-06-23T08:07:53.674Z,16.90
2018-06-23T08:10:22.888Z,16.90
2018-06-23T08:12:52.411Z,16.80
2018-06-23T08:15:21.674Z,16.80
2018-06-23T08:17:50.891Z,16.70
2018-06-23T08:20:20.100Z,17.00
2018-06-23T08:22:49.309Z,17.50
2018-06-23T08:25:18.530Z,18.00
2018-06-23T08:27:47.711Z,18.20
2018-06-23T08:30:16.914Z,18.60
2018-06-23T08:32:46.116Z,18.50
2018-06-23T08:35:15.322Z,18.60
2018-06-23T08:37:44.530Z,19.00
2018-06-23T08:40:13.768Z,18.90
2018-06-23T08:42:42.968Z,18.60
2018-06-23T08:45:12.203Z,18.30
2018-06-23T08:47:41.513Z,18.20
2018-06-23T08:50:10.730Z,18.20
2018-06-23T08:52:39.935Z,18.00
2018-06-23T08:55:09.138Z,17.90
2018-06-23T08:57:38.354Z,17.90
2018-06-23T09:00:07.586Z,17.70
2018-06-23T09:02:36.842Z,17.80
2018-06-23T09:05:06.105Z,17.80
2018-06-23T09:07:35.335Z,17.80
2018-06-23T09:10:04.635Z,17.80
2018-06-23T09:12:33.879Z,18.10
2018-06-23T09:15:03.111Z,18.50
2018-06-23T09:17:32.347Z,18.50
2018-06-23T09:20:01.545Z,18.40
2018-06-23T09:22:30.814Z,18.50
2018-06-23T09:25:00.079Z,18.60
2018-06-23T09:27:29.295Z,18.50
2018-06-23T09:29:58.495Z,18.40
2018-06-23T09:32:27.754Z,18.50
2018-06-23T09:34:56.958Z,18.70
2018-06-23T09:37:26.187Z,18.90
2018-06-23T09:39:55.667Z,19.40
2018-06-23T09:42:25.069Z,19.90
2018-06-23T09:44:54.258Z,20.20
2018-06-23T09:47:23.468Z,20.40
2018-06-23T09:49:52.662Z,20.30
2018-06-23T09:52:22.015Z,19.70
2018-06-23T09:54:51.238Z,19.10
2018-06-23T09:57:20.491Z,19.40
2018-06-23T09:59:49.682Z,19.30
2018-06-23T10:02:18.926Z,19.40
2018-06-23T10:04:48.113Z,19.70
2018-06-23T10:07:17.379Z,19.70
2018-06-23T10:09:46.558Z,19.60
2018-06-23T10:12:15.830Z,19.40
2018-06-23T10:14:45.039Z,19.20
2018-06-23T10:17:14.245Z,19.80
2018-06-23T10:19:43.474Z,20.40
2018-06-23T10:22:12.694Z,20.40
2018-06-23T10:24:41.900Z,20.60
2018-06-23T10:27:11.106Z,20.30
2018-06-23T10:29:40.350Z,20.00
2018-06-23T10:32:09.631Z,19.60
2018-06-23T10:34:38.846Z,19.40
2018-06-23T10:37:08.047Z,19.40
2018-06-23T10:39:37.265Z,19.50
2018-06-23T10:42:06.578Z,19.80
2018-06-23T10:44:36.009Z,19.40
2018-06-23T10:47:05.248Z,19.70
2018-06-23T10:49:34.438Z,19.90
2018-06-23T10:52:03.957Z,20.10
2018-06-23T10:54:33.183Z,19.70
2018-06-23T10:57:02.376Z,19.90
2018-06-23T10:59:31.582Z,20.50
2018-06-23T11:02:00.814Z,20.70
2018-06-23T11:04:30.040Z,20.10
2018-06-23T11:06:59.410Z,20.30
2018-06-23T11:09:29.746Z,20.30
2018-06-23T11:11:59.502Z,20.30
2018-06-23T11:14:28.723Z,20.40
2018-06-23T11:16:57.954Z,20.40
2018-06-23T11:19:27.177Z,20.60
2018-06-23T11:21:56.374Z,20.60
2018-06-23T11:24:25.749Z,20.80
2018-06-23T11:26:54.951Z,21.40
2018-06-23T11:29:24.194Z,21.80
2018-06-23T11:31:53.503Z,21.90
2018-06-23T11:34:22.726Z,22.00
2018-06-23T11:36:51.925Z,22.10
2018-06-23T11:39:21.412Z,22.10
2018-06-23T11:44:19.422Z,22.20
2018-06-23T11:46:48.619Z,22.30
2018-06-23T11:49:17.866Z,21.70
2018-06-23T11:51:47.159Z,21.50
2018-06-23T11:54:16.369Z,21.30
2018-06-23T11:56:45.626Z,21.50
2018-06-23T11:59:14.834Z,21.20
2018-06-23T12:01:44.135Z,21.10
2018-06-23T12:04:21.047Z,21.00
2018-06-23T12:06:50.263Z,21.70
2018-06-23T12:09:20.171Z,21.80
2018-06-23T12:11:50.715Z,21.50
2018-06-23T12:14:19.979Z,21.80
2018-06-23T12:16:49.282Z,22.00
2018-06-23T12:19:18.550Z,22.10
2018-06-23T12:21:47.790Z,22.50
2018-06-23T12:24:17.010Z,22.80
2018-06-23T12:29:15.007Z,22.90
2018-06-23T12:31:44.271Z,23.00
2018-06-23T12:34:13.454Z,23.20
2018-06-23T12:36:42.718Z,23.10
2018-06-23T12:39:12.330Z,23.20
2018-06-23T12:41:41.768Z,23.40
2018-06-23T12:44:10.865Z,23.40
2018-06-23T12:46:40.072Z,23.60
2018-06-23T12:49:09.256Z,23.60
2018-06-23T12:51:38.458Z,23.10
2018-06-23T12:54:07.669Z,22.80
2018-06-23T12:56:36.902Z,22.50
2018-06-23T12:59:06.132Z,22.90
2018-06-23T13:01:35.393Z,22.60
2018-06-23T13:04:04.598Z,23.00
2018-06-23T13:06:33.800Z,23.10
2018-06-23T13:09:03.087Z,23.10
2018-06-23T13:11:32.282Z,22.90
2018-06-23T13:14:01.539Z,23.20
2018-06-23T13:16:30.758Z,22.80
2018-06-23T13:19:00.021Z,22.90
2018-06-23T13:21:29.247Z,23.10
2018-06-23T13:23:58.430Z,23.20
2018-06-23T13:26:27.642Z,23.40
2018-06-23T13:28:56.826Z,23.50
2018-06-23T13:31:26.067Z,23.30
2018-06-23T13:33:55.298Z,23.50
2018-06-23T13:36:24.480Z,23.60
2018-06-23T13:38:53.726Z,23.60
2018-06-23T13:41:22.933Z,23.30
2018-06-23T13:43:52.162Z,23.40
2018-06-23T13:46:21.382Z,23.20
2018-06-23T13:48:50.730Z,22.60
2018-06-23T13:51:19.912Z,22.80
2018-06-23T13:53:49.127Z,23.10
2018-06-23T13:56:18.524Z,23.30
2018-06-23T13:58:47.739Z,23.50
2018-06-23T14:01:16.914Z,23.50
2018-06-23T14:03:46.134Z,23.50
2018-06-23T14:06:15.319Z,23.20
2018-06-23T14:08:44.538Z,23.10
2018-06-23T14:11:13.791Z,22.90
2018-06-23T14:16:11.770Z,22.80
2018-06-23T14:18:41.091Z,22.90
2018-06-23T14:21:10.305Z,23.10
2018-06-23T14:23:39.551Z,23.20
2018-06-23T14:26:08.733Z,23.30
2018-06-23T14:28:37.953Z,23.30
2018-06-23T14:31:07.175Z,23.20
2018-06-23T14:33:36.413Z,23.10
2018-06-23T14:36:05.816Z,23.20
2018-06-23T14:38:35.018Z,23.20
2018-06-23T14:41:04.231Z,23.20
2018-06-23T14:43:33.894Z,23.10
2018-06-23T14:46:03.435Z,23.10
2018-06-23T14:48:32.633Z,23.00
2018-06-23T14:51:02.059Z,23.00
2018-06-23T14:53:31.274Z,23.20
2018-06-23T14:56:00.518Z,23.00
2018-06-23T14:58:29.751Z,22.80
2018-06-23T15:00:59.027Z,22.90
2018-06-23T15:03:28.231Z,23.10
2018-06-23T15:08:37.437Z,23.00
2018-06-23T15:11:17.858Z,22.90
2018-06-23T15:13:47.085Z,22.90
2018-06-23T15:16:16.286Z,22.80
2018-06-23T15:18:45.534Z,22.60
2018-06-23T15:21:14.843Z,22.70
2018-06-23T15:23:44.058Z,22.70
2018-06-23T15:26:13.261Z,22.70
2018-06-23T15:28:43.034Z,22.60
2018-06-23T15:31:12.502Z,22.20
2018-06-23T15:33:42.194Z,22.20
2018-06-23T15:36:11.754Z,22.20
2018-06-23T15:41:09.765Z,22.00
2018-06-23T15:43:38.958Z,21.90
2018-06-23T15:46:08.171Z,21.90
2018-06-23T15:48:37.374Z,22.30
2018-06-23T15:51:06.646Z,22.50
2018-06-23T15:53:35.855Z,22.60
2018-06-23T15:56:05.115Z,22.60
2018-06-23T15:58:34.335Z,22.70
2018-06-23T16:01:03.541Z,22.80
2018-06-23T16:03:32.733Z,22.70
2018-06-23T16:06:01.986Z,22.70
2018-06-23T16:08:31.176Z,22.40
2018-06-23T16:11:00.389Z,22.30
2018-06-23T16:13:29.586Z,22.20
2018-06-23T16:15:58.821Z,22.00
2018-06-23T16:18:28.086Z,22.10
2018-06-23T16:20:57.370Z,22.20
2018-06-23T16:23:26.624Z,22.10
2018-06-23T16:25:55.844Z,22.00
2018-06-23T16:28:25.066Z,22.00
2018-06-23T16:30:54.554Z,21.90
2018-06-23T16:33:23.754Z,21.90
2018-06-23T16:35:54.390Z,21.80
2018-06-23T16:38:23.897Z,21.70
2018-06-23T16:40:53.147Z,21.60
2018-06-23T16:43:22.338Z,21.60
2018-06-23T16:45:51.555Z,21.50
2018-06-23T16:48:20.726Z,21.60
2018-06-23T16:50:49.949Z,21.60
2018-06-23T16:53:19.134Z,21.50
2018-06-23T16:55:48.368Z,21.50
2018-06-23T16:58:17.564Z,21.40
2018-06-23T17:00:46.811Z,21.40
2018-06-23T17:03:16.162Z,21.40
2018-06-23T17:05:45.390Z,21.40
2018-06-23T17:08:14.607Z,21.30
2018-06-23T17:10:43.915Z,21.30
2018-06-23T17:13:13.110Z,21.40
2018-06-23T17:15:42.337Z,21.40
2018-06-23T17:18:11.578Z,21.40
2018-06-23T17:20:40.906Z,21.30
2018-06-23T17:23:10.143Z,21.30
2018-06-23T17:25:39.310Z,21.20
2018-06-23T17:28:08.546Z,21.10
2018-06-23T17:30:37.744Z,21.00
2018-06-23T17:33:06.942Z,21.00
2018-06-23T17:35:36.142Z,21.00
2018-06-23T17:38:05.437Z,21.00
2018-06-23T17:40:34.667Z,21.00
2018-06-23T17:43:03.931Z,20.90
2018-06-23T17:45:33.132Z,20.80
2018-06-23T17:48:02.370Z,20.70
2018-06-23T17:50:31.568Z,20.80
2018-06-23T17:53:00.781Z,20.70
2018-06-23T17:55:29.987Z,20.80
2018-06-23T17:57:59.239Z,20.70
2018-06-23T18:00:28.542Z,20.70
2018-06-23T18:02:57.750Z,20.50
2018-06-23T18:05:26.966Z,20.40
2018-06-23T18:07:56.177Z,20.40
2018-06-23T18:10:25.370Z,20.30
2018-06-23T18:12:54.590Z,20.30
2018-06-23T18:15:23.823Z,20.20
2018-06-23T18:17:53.019Z,20.20
2018-06-23T18:20:22.258Z,20.20
2018-06-23T18:22:51.469Z,20.20
2018-06-23T18:25:20.661Z,20.10
2018-06-23T18:27:49.862Z,20.00
2018-06-23T18:30:19.098Z,20.00
2018-06-23T18:32:48.309Z,19.80
2018-06-23T18:35:17.502Z,19.70
2018-06-23T18:37:46.713Z,19.70
2018-06-23T18:40:15.974Z,19.60
2018-06-23T18:42:45.181Z,19.50
2018-06-23T18:45:14.379Z,19.50
2018-06-23T18:47:43.575Z,19.40
2018-06-23T18:50:12.779Z,19.40
2018-06-23T18:52:41.989Z,19.30
2018-06-23T18:55:11.283Z,19.30
2018-06-23T18:57:40.455Z,19.20
2018-06-23T19:00:10.122Z,19.10
2018-06-23T19:02:39.557Z,19.10
2018-06-23T19:05:08.783Z,19.00
2018-06-23T19:07:37.975Z,19.00
2018-06-23T19:12:37.245Z,18.70
2018-06-23T19:15:06.873Z,18.70
2018-06-23T19:17:36.089Z,18.70
2018-06-23T19:20:05.375Z,18.70
2018-06-23T19:22:34.566Z,18.50
2018-06-23T19:25:03.854Z,18.10
2018-06-23T19:27:33.029Z,18.00
2018-06-23T19:30:02.294Z,18.00
2018-06-23T19:32:31.454Z,17.70
2018-06-23T19:35:00.690Z,17.90
2018-06-23T19:37:30.006Z,18.00
2018-06-23T19:39:59.815Z,18.00
2018-06-23T19:42:29.002Z,17.90
2018-06-23T19:44:58.227Z,17.90
2018-06-23T19:47:27.437Z,17.90
2018-06-23T19:49:56.691Z,17.60
2018-06-23T19:52:25.875Z,17.10
2018-06-23T19:54:55.966Z,16.90
2018-06-23T19:57:25.170Z,16.70
2018-06-23T19:59:54.378Z,16.70
2018-06-23T20:02:23.567Z,16.40
2018-06-23T20:04:52.783Z,16.30
2018-06-23T20:07:21.990Z,16.50
2018-06-23T20:09:51.198Z,16.40
2018-06-23T20:12:20.416Z,16.20
2018-06-23T20:14:49.676Z,16.20
2018-06-23T20:17:18.927Z,16.40
2018-06-23T20:19:48.258Z,16.00
2018-06-23T20:22:17.541Z,16.30
2018-06-23T20:24:46.708Z,16.10
2018-06-23T20:27:15.916Z,16.00
2018-06-23T20:29:45.303Z,16.10
2018-06-23T20:32:15.005Z,15.80
2018-06-23T20:34:44.211Z,15.90
2018-06-23T20:37:13.495Z,15.90
2018-06-23T20:39:42.724Z,16.10
2018-06-23T20:42:11.923Z,16.00
2018-06-23T20:44:41.121Z,15.90
2018-06-23T20:47:10.322Z,15.80
2018-06-23T20:49:39.546Z,15.80
2018-06-23T20:52:08.762Z,15.90
2018-06-23T20:54:38.066Z,16.00
2018-06-23T20:57:07.274Z,15.80
2018-06-23T20:59:36.643Z,15.90
2018-06-23T21:02:06.317Z,16.00
2018-06-23T21:04:35.522Z,16.00
2018-06-23T21:07:04.778Z,16.00
2018-06-23T21:09:34.002Z,15.40
2018-06-23T21:12:03.234Z,15.70
2018-06-23T21:14:32.424Z,15.90
2018-06-23T21:17:01.666Z,15.20
2018-06-23T21:19:30.847Z,15.10
2018-06-23T21:22:00.051Z,15.40
2018-06-23T21:24:29.258Z,15.00
2018-06-23T21:26:58.469Z,15.00
2018-06-23T21:29:27.770Z,14.90
2018-06-23T21:31:57.293Z,14.70
2018-06-23T21:34:26.491Z,15.30
2018-06-23T21:36:55.716Z,15.60
2018-06-23T21:39:25.099Z,15.30
2018-06-23T21:41:54.363Z,15.10
2018-06-23T21:44:23.546Z,15.40
2018-06-23T21:46:52.755Z,15.40
2018-06-23T21:49:22.003Z,15.40
2018-06-23T21:51:51.212Z,15.20
2018-06-23T21:54:20.408Z,15.60
2018-06-23T21:56:49.618Z,15.60
2018-06-23T21:59:18.790Z,15.70
2018-06-23T22:01:48.075Z,15.80
2018-06-23T22:04:17.270Z,15.80
2018-06-23T22:06:46.481Z,15.60
2018-06-23T22:09:15.666Z,15.60
2018-06-23T22:11:44.887Z,15.90
2018-06-23T22:14:14.071Z,15.90
2018-06-23T22:16:43.305Z,15.70
2018-06-23T22:19:12.551Z,15.60
2018-06-23T22:21:41.804Z,15.20
2018-06-23T22:24:11.005Z,15.60
2018-06-23T22:26:40.174Z,15.60
2018-06-23T22:29:09.470Z,15.70
2018-06-23T22:31:38.681Z,15.70
2018-06-23T22:34:07.885Z,15.40
2018-06-23T22:36:37.079Z,15.60
2018-06-23T22:39:09.303Z,15.70
2018-06-23T22:41:38.500Z,15.60
2018-06-23T22:44:07.975Z,15.70
2018-06-23T22:49:05.966Z,15.50
2018-06-23T22:51:35.164Z,15.50
2018-06-23T22:54:04.406Z,15.50
2018-06-23T22:56:33.593Z,15.00
2018-06-23T22:59:02.917Z,15.10
2018-06-23T23:01:32.327Z,15.10
2018-06-23T23:04:01.531Z,15.00
2018-06-23T23:06:30.718Z,14.90
2018-06-23T23:08:59.975Z,14.50
2018-06-23T23:11:29.163Z,14.00
2018-06-23T23:13:58.382Z,14.20
2018-06-23T23:16:27.643Z,14.40
2018-06-23T23:21:25.626Z,14.20
2018-06-23T23:23:54.841Z,14.20
2018-06-23T23:26:24.029Z,14.30
2018-06-23T23:28:55.118Z,14.30
2018-06-23T23:31:24.322Z,14.20
2018-06-23T23:33:53.855Z,13.70
2018-06-23T23:36:23.036Z,13.20
2018-06-23T23:38:52.292Z,13.50
2018-06-23T23:41:21.490Z,13.40
2018-06-23T23:43:50.695Z,13.60
2018-06-23T23:46:19.915Z,13.80
2018-06-23T23:48:49.178Z,13.90
2018-06-23T23:51:18.370Z,13.30
2018-06-23T23:53:47.591Z,13.40
2018-06-23T23:56:16.775Z,13.40
2018-06-23T23:58:45.966Z,13.30
